createdAt,value
2023-04-03T04:21:39.650Z,9.247016
2023-04-03T04:22:39.620Z,9.246970
2023-04-03T04:23:39.648Z,9.246923
2023-04-03T04:24:40.056Z,9.247029
2023-04-03T04:25:40.603Z,9.246976
2023-04-03T04:26:39.597Z,9.247014
2023-04-03T04:27:39.580Z,9.247024
2023-04-03T04:28:39.580Z,9.247064
2023-04-03T04:29:39.561Z,9.247065
2023-04-03T04:30:39.601Z,9.247042
2023-04-03T04:31:39.568Z,9.247099
2023-04-03T04:32:40.573Z,9.247069
2023-04-03T04:33:39.555Z,9.246993
2023-04-03T04:34:39.584Z,9.246964
2023-04-03T04:35:40.031Z,9.247036
2023-04-03T04:36:39.654Z,9.247101
2023-04-03T04:37:39.513Z,9.247051
2023-04-03T04:38:39.539Z,9.247056
2023-04-03T04:39:39.496Z,9.247023
2023-04-03T04:40:39.870Z,9.247052
2023-04-03T04:41:39.563Z,9.247081
2023-04-03T04:42:39.468Z,9.247132
2023-04-03T04:43:39.483Z,9.247060
2023-04-03T04:44:39.472Z,9.247022
2023-04-03T04:45:39.677Z,9.247046
2023-04-03T04:46:39.520Z,9.247124
2023-04-03T04:47:39.524Z,9.247096
2023-04-03T04:48:39.458Z,9.247055
2023-04-03T04:49:39.452Z,9.247100
2023-04-03T04:50:39.422Z,9.247127
2023-04-03T04:51:51.072Z,9.247066
2023-04-03T04:52:41.463Z,9.247070
2023-04-03T04:53:39.424Z,9.247034
2023-04-03T04:54:39.433Z,9.246918
2023-04-03T04:55:39.437Z,9.246998
2023-04-03T04:56:39.676Z,9.246888
2023-04-03T04:57:39.459Z,9.246921
2023-04-03T04:58:39.762Z,9.246888
2023-04-03T04:59:39.354Z,9.246995
2023-04-03T05:00:39.345Z,9.247079
2023-04-03T05:01:39.396Z,9.247069
2023-04-03T05:02:39.393Z,9.247046
2023-04-03T05:03:39.353Z,9.247112
2023-04-03T05:04:39.356Z,9.247035
2023-04-03T05:05:39.902Z,9.246969
2023-04-03T05:06:39.400Z,9.246929
2023-04-03T05:07:39.359Z,9.246975
2023-04-03T05:08:39.323Z,9.247024
2023-04-03T05:09:39.305Z,9.247060
2023-04-03T05:10:40.320Z,9.247073
2023-04-03T05:11:39.312Z,9.247010
2023-04-03T05:12:39.263Z,9.247048
2023-04-03T05:13:39.292Z,9.247087
2023-04-03T05:14:39.265Z,9.247054
2023-04-03T05:15:39.548Z,9.247058
2023-04-03T05:16:39.286Z,9.247086
2023-04-03T05:17:39.303Z,9.247049
2023-04-03T05:18:40.251Z,9.247068
2023-04-03T05:19:39.231Z,9.247118
2023-04-03T05:20:39.219Z,9.247145
2023-04-03T05:21:39.240Z,9.247135
2023-04-03T05:22:39.241Z,9.247116
2023-04-03T05:23:39.223Z,9.247116
2023-04-03T05:24:39.243Z,9.247138
2023-04-03T05:25:39.269Z,9.247057
2023-04-03T05:26:39.171Z,9.247071
2023-04-03T05:27:39.185Z,9.247114
2023-04-03T05:28:39.175Z,9.247201
2023-04-03T05:29:39.297Z,9.247079
2023-04-03T05:30:39.160Z,9.247031
2023-04-03T05:31:39.206Z,9.246977
2023-04-03T05:32:39.203Z,9.246992
2023-04-03T05:33:39.138Z,9.246966
2023-04-03T05:34:39.176Z,9.247029
2023-04-03T05:35:39.490Z,9.247077
2023-04-03T05:36:39.124Z,9.247064
2023-04-03T05:37:39.108Z,9.247099
2023-04-03T05:38:39.097Z,9.247137
2023-04-03T05:39:39.076Z,9.247113
2023-04-03T05:40:39.088Z,9.247092
2023-04-03T05:41:39.066Z,9.247078
2023-04-03T05:42:39.064Z,9.247072
2023-04-03T05:43:39.094Z,9.247025
2023-04-03T05:44:39.072Z,9.246995
2023-04-03T05:45:39.097Z,9.247031
2023-04-03T05:46:39.040Z,9.247141
2023-04-03T05:47:39.056Z,9.247162
2023-04-03T05:48:39.029Z,9.247082
2023-04-03T05:49:39.030Z,9.247068
2023-04-03T05:50:39.009Z,9.247040
2023-04-03T05:51:39.007Z,9.247026
2023-04-03T05:52:39.012Z,9.247045
2023-04-03T05:53:38.995Z,9.247067
2023-04-03T05:54:39.006Z,9.247056
2023-04-03T05:55:39.291Z,9.246957
2023-04-03T05:56:38.957Z,9.247065
2023-04-03T05:57:39.084Z,9.247108
2023-04-03T05:58:38.964Z,9.247054
2023-04-03T05:59:38.941Z,9.247098
2023-04-03T06:00:38.963Z,9.247067
2023-04-03T06:01:39.060Z,9.247076
2023-04-03T06:02:39.016Z,9.247085
2023-04-03T06:03:40.301Z,9.247074
2023-04-03T06:04:40.001Z,9.247056
2023-04-03T06:05:39.068Z,9.247074
2023-04-03T06:06:38.908Z,9.247102
2023-04-03T06:07:38.916Z,9.247096
2023-04-03T06:08:38.903Z,9.247062
2023-04-03T06:09:38.880Z,9.247087
2023-04-03T06:10:39.058Z,9.247078
2023-04-03T06:11:38.880Z,9.247090
2023-04-03T06:12:38.880Z,9.247112
2023-04-03T06:13:38.879Z,9.247101
2023-04-03T06:14:38.852Z,9.247074
2023-04-03T06:15:38.848Z,9.247102
2023-04-03T06:16:39.878Z,9.247066
2023-04-03T06:17:39.865Z,9.247102
2023-04-03T06:18:38.942Z,9.247106
2023-04-03T06:19:38.802Z,9.247098
2023-04-03T06:20:39.011Z,9.247099
2023-04-03T06:21:38.825Z,9.247100
2023-04-03T06:22:38.856Z,9.247083
2023-04-03T06:23:38.795Z,9.247073
2023-04-03T06:24:38.767Z,9.247096
2023-04-03T06:25:38.798Z,9.247083
2023-04-03T06:26:39.702Z,9.247054
2023-04-03T06:27:38.745Z,9.247063
2023-04-03T06:28:38.852Z,9.247055
2023-04-03T06:29:38.730Z,9.247085
2023-04-03T06:30:39.169Z,9.247037
2023-04-03T06:31:38.825Z,9.247084
2023-04-03T06:32:38.780Z,9.247085
2023-04-03T06:33:38.718Z,9.247085
2023-04-03T06:34:38.708Z,9.247121
2023-04-03T06:35:38.737Z,9.247125
2023-04-03T06:36:38.744Z,9.247127
2023-04-03T06:37:38.701Z,9.247147
2023-04-03T06:38:38.718Z,9.247095
2023-04-03T06:39:38.737Z,9.247074
2023-04-03T06:40:38.989Z,9.247105
2023-04-03T06:41:38.727Z,9.247111
2023-04-03T06:42:38.743Z,9.247128
2023-04-03T06:43:38.707Z,9.247116
2023-04-03T06:44:38.704Z,9.247087
2023-04-03T06:45:38.870Z,9.247114
2023-04-03T06:46:38.833Z,9.247079
2023-04-03T06:47:38.682Z,9.247031
2023-04-03T06:48:38.708Z,9.247025
2023-04-03T06:49:38.676Z,9.247080
2023-04-03T06:50:39.597Z,9.247069
2023-04-03T06:51:38.584Z,9.247084
2023-04-03T06:52:38.583Z,9.247087
2023-04-03T06:53:38.598Z,9.247060
2023-04-03T06:54:38.589Z,9.247042
2023-04-03T06:55:38.672Z,9.247087
2023-04-03T06:56:38.583Z,9.247084
2023-04-03T06:57:38.598Z,9.247033
2023-04-03T06:58:38.553Z,9.247048
2023-04-03T06:59:38.558Z,9.247063
2023-04-03T07:00:38.533Z,9.247083
2023-04-03T07:01:38.561Z,9.247055
2023-04-03T07:02:38.589Z,9.247090
2023-04-03T07:03:38.813Z,9.247100
2023-04-03T07:04:38.554Z,9.247117
2023-04-03T07:05:38.661Z,9.247067
2023-04-03T07:06:38.502Z,9.247105
2023-04-03T07:07:38.502Z,9.247059
2023-04-03T07:08:38.468Z,9.247062
2023-04-03T07:09:38.493Z,9.247041
2023-04-03T07:10:38.469Z,9.247054
2023-04-03T07:11:38.451Z,9.247037
2023-04-03T07:12:38.450Z,9.247035
2023-04-03T07:13:38.436Z,9.247028
2023-04-03T07:14:38.451Z,9.246999
2023-04-03T07:15:38.583Z,9.247038
2023-04-03T07:16:40.903Z,9.247046
2023-04-03T07:17:38.441Z,9.247062
2023-04-03T07:18:38.393Z,9.247053
2023-04-03T07:19:38.419Z,9.246987
2023-04-03T07:20:38.380Z,9.247026
2023-04-03T07:21:38.396Z,9.247061
2023-04-03T07:22:38.373Z,9.247053
2023-04-03T07:23:38.380Z,9.247060
2023-04-03T07:24:38.391Z,9.247049
2023-04-03T07:25:38.669Z,9.247061
2023-04-03T07:26:39.161Z,9.247060
2023-04-03T07:27:38.343Z,9.247087
2023-04-03T07:28:38.340Z,9.247067
2023-04-03T07:29:38.334Z,9.247068
2023-04-03T07:30:38.325Z,9.247054
2023-04-03T07:31:38.327Z,9.247082
2023-04-03T07:32:38.354Z,9.247094
2023-04-03T07:33:38.393Z,9.247035
2023-04-03T07:34:38.322Z,9.247091
2023-04-03T07:35:38.646Z,9.247074
2023-04-03T07:36:38.279Z,9.247060
2023-04-03T07:37:38.279Z,9.247064
2023-04-03T07:38:38.286Z,9.247070
2023-04-03T07:39:38.291Z,9.247067
2023-04-03T07:40:38.252Z,9.247072
2023-04-03T07:41:38.262Z,9.247111
2023-04-03T07:42:38.328Z,9.247112
2023-04-03T07:43:39.208Z,9.247109
2023-04-03T07:44:38.240Z,9.247160
2023-04-03T07:45:38.379Z,9.247198
2023-04-03T07:46:38.213Z,9.247211
2023-04-03T07:47:38.297Z,9.247080
2023-04-03T07:48:38.228Z,9.247038
2023-04-03T07:49:38.205Z,9.247053
2023-04-03T07:50:38.185Z,9.247077
2023-04-03T07:51:38.175Z,9.247092
2023-04-03T07:52:39.208Z,9.247101
2023-04-03T07:53:38.179Z,9.247112
2023-04-03T07:54:38.175Z,9.247045
2023-04-03T07:55:38.555Z,9.247030
2023-04-03T07:56:38.168Z,9.247108
2023-04-03T07:57:38.169Z,9.247143
2023-04-03T07:58:38.128Z,9.247115
2023-04-03T07:59:38.150Z,9.247086
2023-04-03T08:00:38.114Z,9.247070
2023-04-03T08:01:38.115Z,9.247037
2023-04-03T08:02:38.172Z,9.247187
2023-04-03T08:03:38.375Z,9.247079
2023-04-03T08:04:38.341Z,9.247079
2023-04-03T08:05:38.378Z,9.247171
2023-04-03T08:06:46.520Z,9.247171
2023-04-03T08:07:40.072Z,9.247131
2023-04-03T08:08:38.075Z,9.247089
2023-04-03T08:09:38.086Z,9.247087
2023-04-03T08:10:38.049Z,9.247113
2023-04-03T08:11:38.027Z,9.247099
2023-04-03T08:12:38.040Z,9.247144
2023-04-03T08:13:38.027Z,9.247189
2023-04-03T08:14:38.046Z,9.247117
2023-04-03T08:15:38.135Z,9.247220
2023-04-03T08:16:38.166Z,9.247078
2023-04-03T08:17:38.016Z,9.247027
2023-04-03T08:18:37.984Z,9.247056
2023-04-03T08:19:37.997Z,9.247058
2023-04-03T08:20:38.007Z,9.247133
2023-04-03T08:21:37.977Z,9.247148
2023-04-03T08:22:37.980Z,9.247126
2023-04-03T08:23:37.982Z,9.247078
2023-04-03T08:24:41.086Z,9.247097
2023-04-03T08:25:39.275Z,9.247118
2023-04-03T08:26:37.937Z,9.247128
2023-04-03T08:27:37.936Z,9.247128
2023-04-03T08:28:37.937Z,9.247145
2023-04-03T08:29:37.934Z,9.247179
2023-04-03T08:30:37.923Z,9.247141
2023-04-03T08:31:37.911Z,9.247072
2023-04-03T08:32:37.935Z,9.247122
2023-04-03T08:33:37.937Z,9.247092
2023-04-03T08:34:37.895Z,9.247065
2023-04-03T08:35:38.251Z,9.247013
2023-04-03T08:36:38.870Z,9.247121
2023-04-03T08:37:37.872Z,9.247116
2023-04-03T08:38:37.869Z,9.247130
2023-04-03T08:39:37.941Z,9.247133
2023-04-03T08:40:37.842Z,9.247137
2023-04-03T08:41:37.843Z,9.247100
2023-04-03T08:42:37.836Z,9.247147
2023-04-03T08:43:37.843Z,9.247126
2023-04-03T08:44:39.179Z,9.247128
2023-04-03T08:45:38.033Z,9.247085
2023-04-03T08:46:37.896Z,9.247122
2023-04-03T08:47:37.877Z,9.247140
2023-04-03T08:48:37.796Z,9.247093
2023-04-03T08:49:37.873Z,9.247113
2023-04-03T08:50:37.813Z,9.247134
2023-04-03T08:51:37.821Z,9.247126
2023-04-03T08:52:37.891Z,9.247130
2023-04-03T08:53:37.845Z,9.247110
2023-04-03T08:54:37.784Z,9.247110
2023-04-03T08:55:37.959Z,9.247073
2023-04-03T08:56:37.746Z,9.247074
2023-04-03T08:57:37.776Z,9.247186
2023-04-03T08:58:37.759Z,9.247111
2023-04-03T08:59:37.762Z,9.247096
2023-04-03T09:00:37.743Z,9.247094
2023-04-03T09:01:37.827Z,9.247100
2023-04-03T09:02:37.839Z,9.247107
2023-04-03T09:03:38.838Z,9.247138
2023-04-03T09:04:37.727Z,9.247123
2023-04-03T09:05:37.943Z,9.247102
2023-04-03T09:06:38.744Z,9.247103
2023-04-03T09:07:37.666Z,9.247097
2023-04-03T09:08:37.747Z,9.247106
2023-04-03T09:09:37.670Z,9.247086
2023-04-03T09:10:37.815Z,9.247106
2023-04-03T09:11:37.652Z,9.247153
2023-04-03T09:12:37.630Z,9.247095
2023-04-03T09:13:37.627Z,9.247098
2023-04-03T09:14:37.635Z,9.247129
2023-04-03T09:15:39.341Z,9.247149
2023-04-03T09:16:38.619Z,9.247124
2023-04-03T09:17:37.658Z,9.247141
2023-04-03T09:18:37.586Z,9.247147
2023-04-03T09:19:37.640Z,9.247122
2023-04-03T09:20:37.876Z,9.247096
2023-04-03T09:21:37.603Z,9.247110
2023-04-03T09:22:45.625Z,9.247094
2023-04-03T09:23:39.566Z,9.247122
2023-04-03T09:24:37.667Z,9.247104
2023-04-03T09:25:37.587Z,9.247099
2023-04-03T09:26:37.538Z,9.247115
2023-04-03T09:27:37.609Z,9.247107
2023-04-03T09:28:43.145Z,9.247148
2023-04-03T09:29:39.611Z,9.247115
2023-04-03T09:30:37.714Z,9.247095
2023-04-03T09:31:38.709Z,9.247051
2023-04-03T09:32:37.593Z,9.247054
2023-04-03T09:33:37.476Z,9.247042
2023-04-03T09:34:37.504Z,9.247052
2023-04-03T09:35:47.380Z,9.247066
2023-04-03T09:36:39.479Z,9.247085
2023-04-03T09:37:39.028Z,9.247104
2023-04-03T09:38:37.454Z,9.247131
2023-04-03T09:39:37.482Z,9.247166
2023-04-03T09:40:37.836Z,9.247127
2023-04-03T09:41:37.435Z,9.247127
2023-04-03T09:42:37.457Z,9.247046
2023-04-03T09:43:37.459Z,9.247114
2023-04-03T09:44:37.491Z,9.247046
2023-04-03T09:45:37.428Z,9.247088
2023-04-03T09:46:37.454Z,9.247113
2023-04-03T23:58:31.853Z,9.247115
2023-04-03T23:59:32.028Z,9.247051
